Time,TemperatureF,DewpointF,PressureIn,WindDirection,WindDirectionDegrees,WindSpeedMPH,WindSpeedGustMPH,Humidity,HourlyPrecipIn,Conditions,Clouds,dailyrainin,SoftwareType,DateUTC
2013-03-15 00:05:00,44.6,32.4,30.10,North,0,0.0,0.0,62,0.00,,CLR,0.00,VWS V14.01,2013-03-15 05:05:00,
2013-03-15 00:10:00,44.4,32.6,30.10,North,0,0.0,0.0,63,0.00,,CLR,0.00,VWS V14.01,2013-03-15 05:10:00,
2013-03-15 00:15:00,44.4,32.6,30.10,North,0,0.0,0.0,63,0.00,,CLR,0.00,VWS V14.01,2013-03-15 05:15:00,
2013-03-15 00:20:00,44.2,32.4,30.10,NNW,338,0.7,0.7,63,0.00,,CLR,0.00,VWS V14.01,2013-03-15 05:20:00,
2013-03-15 00:25:00,44.0,32.2,30.10,NNW,338,0.0,0.7,63,0.00,,CLR,0.00,VWS V14.01,2013-03-15 05:25:00,
2013-03-15 00:30:00,43.9,32.1,30.10,NNW,338,0.0,0.0,63,0.00,,CLR,0.00,VWS V14.01,2013-03-15 05:30:00,
2013-03-15 00:35:00,43.7,32.0,30.10,SW,225,0.0,0.0,63,0.00,,CLR,0.00,VWS V14.01,2013-03-15 05:35:00,
2013-03-15 00:40:00,43.3,31.6,30.09,NW,315,0.0,0.0,63,0.00,,CLR,0.00,VWS V14.01,2013-03-15 05:40:00,
2013-03-15 00:45:00,43.1,31.8,30.09,NW,315,0.0,0.0,64,0.00,,CLR,0.00,VWS V14.01,2013-03-15 05:45:00,
2013-03-15 00:50:00,43.0,32.1,30.09,NNW,338,0.0,0.0,65,0.00,,CLR,0.00,VWS V14.01,2013-03-15 05:50:00,
2013-03-15 00:55:00,42.8,31.9,30.09,NNW,338,0.0,0.0,65,0.00,,CLR,0.00,VWS V14.01,2013-03-15 05:55:00,
2013-03-15 01:05:00,42.6,31.7,30.08,NNW,338,0.0,0.0,65,0.00,,CLR,0.00,VWS V14.01,2013-03-15 06:05:00,
2013-03-15 01:10:00,42.2,31.7,30.08,NNW,338,0.0,0.0,66,0.00,,CLR,0.00,VWS V14.01,2013-03-15 06:10:00,
2013-03-15 01:15:00,42.2,31.7,30.08,NNW,338,0.0,0.0,66,0.00,,CLR,0.00,VWS V14.01,2013-03-15 06:15:00,
2013-03-15 01:20:00,42.1,31.6,30.08,NNW,338,0.0,0.0,66,0.00,,CLR,0.00,VWS V14.01,2013-03-15 06:20:00,
2013-03-15 01:25:00,41.9,31.4,30.08,NNW,338,0.0,0.0,66,0.00,,CLR,0.00,VWS V14.01,2013-03-15 06:25:00,
2013-03-15 01:30:00,41.7,31.2,30.08,SE,135,0.0,0.0,66,0.00,,CLR,0.00,VWS V14.01,2013-03-15 06:30:00,
2013-03-15 01:35:00,41.3,31.2,30.07,NE,45,0.0,0.0,67,0.00,,CLR,0.00,VWS V14.01,2013-03-15 06:35:00,
2013-03-15 01:40:00,41.2,31.1,30.07,NNE,22,0.0,0.0,67,0.00,,CLR,0.00,VWS V14.01,2013-03-15 06:40:00,
2013-03-15 01:45:00,41.0,31.3,30.07,North,0,0.0,0.0,68,0.00,,CLR,0.00,VWS V14.01,2013-03-15 06:45:00,
2013-03-15 01:50:00,40.8,31.1,30.07,North,0,0.0,0.0,68,0.00,,CLR,0.00,VWS V14.01,2013-03-15 06:50:00,
2013-03-15 01:55:00,40.6,30.9,30.07,North,0,0.0,0.0,68,0.00,,CLR,0.00,VWS V14.01,2013-03-15 06:55:00,
2013-03-15 02:05:00,40.4,31.0,30.07,North,0,0.0,0.0,69,0.00,,CLR,0.00,VWS V14.01,2013-03-15 07:05:00,
2013-03-15 02:10:00,40.3,31.0,30.07,North,0,0.0,0.0,69,0.00,,CLR,0.00,VWS V14.01,2013-03-15 07:10:00,
2013-03-15 02:15:00,40.3,31.0,30.07,North,0,0.0,0.0,69,0.00,,CLR,0.00,VWS V14.01,2013-03-15 07:15:00,
2013-03-15 02:20:00,40.1,30.8,30.06,North,0,0.0,0.0,69,0.00,,CLR,0.00,VWS V14.01,2013-03-15 07:20:00,
2013-03-15 02:25:00,39.9,30.9,30.06,North,0,0.0,0.0,70,0.00,,CLR,0.00,VWS V14.01,2013-03-15 07:25:00,
2013-03-15 02:30:00,39.7,30.7,30.06,North,0,0.0,0.0,70,0.00,,CLR,0.00,VWS V14.01,2013-03-15 07:30:00,
2013-03-15 02:35:00,39.7,30.7,30.06,North,0,0.0,0.0,70,0.00,,CLR,0.00,VWS V14.01,2013-03-15 07:35:00,
2013-03-15 02:45:00,39.2,29.9,30.05,North,0,0.0,0.0,69,0.00,,CLR,0.00,VWS V14.01,2013-03-15 07:45:00,
2013-03-15 02:50:00,39.0,30.1,30.05,North,0,0.0,0.0,70,0.00,,CLR,0.00,VWS V14.01,2013-03-15 07:50:00,
2013-03-15 02:55:00,38.8,29.9,30.05,North,0,0.0,0.0,70,0.00,,CLR,0.00,VWS V14.01,2013-03-15 07:55:00,
2013-03-15 03:05:00,38.5,29.9,30.04,North,0,0.0,0.0,71,0.00,,CLR,0.00,VWS V14.01,2013-03-15 08:05:00,
2013-03-15 03:10:00,38.3,29.7,30.04,North,0,0.0,0.0,71,0.00,,CLR,0.00,VWS V14.01,2013-03-15 08:10:00,
2013-03-15 03:15:00,38.1,29.5,30.03,North,0,0.0,0.0,71,0.00,,CLR,0.00,VWS V14.01,2013-03-15 08:15:00,
2013-03-15 03:20:00,37.9,29.4,30.03,North,0,0.0,0.0,71,0.00,,CLR,0.00,VWS V14.01,2013-03-15 08:20:00,
2013-03-15 03:25:00,37.6,29.4,30.02,North,0,0.0,0.0,72,0.00,,CLR,0.00,VWS V14.01,2013-03-15 08:25:00,
2013-03-15 03:30:00,37.6,29.4,30.02,North,0,0.0,0.0,72,0.00,,CLR,0.00,VWS V14.01,2013-03-15 08:30:00,
2013-03-15 03:35:00,37.6,29.7,30.02,North,0,0.0,0.0,73,0.00,,CLR,0.00,VWS V14.01,2013-03-15 08:35:00,
2013-03-15 03:40:00,37.4,29.5,30.02,North,0,0.0,0.0,73,0.00,,CLR,0.00,VWS V14.01,2013-03-15 08:40:00,
2013-03-15 03:45:00,37.4,29.5,30.02,North,0,0.0,0.0,73,0.00,,CLR,0.00,VWS V14.01,2013-03-15 08:45:00,
2013-03-15 03:50:00,37.2,29.4,30.02,North,0,0.0,0.0,73,0.00,,CLR,0.00,VWS V14.01,2013-03-15 08:50:00,
2013-03-15 03:55:00,37.0,29.2,30.02,North,0,0.0,0.0,73,0.00,,CLR,0.00,VWS V14.01,2013-03-15 08:55:00,
2013-03-15 04:05:00,36.8,29.3,30.01,North,0,0.0,0.0,74,0.00,,CLR,0.00,VWS V14.01,2013-03-15 09:05:00,
2013-03-15 04:10:00,36.8,29.3,30.01,North,0,0.0,0.0,74,0.00,,CLR,0.00,VWS V14.01,2013-03-15 09:10:00,
2013-03-15 04:15:00,36.8,29.3,30.00,North,0,0.0,0.0,74,0.00,,CLR,0.00,VWS V14.01,2013-03-15 09:15:00,
2013-03-15 04:20:00,36.8,29.3,30.00,North,0,0.0,0.0,74,0.00,,CLR,0.00,VWS V14.01,2013-03-15 09:20:00,
2013-03-15 04:25:00,36.5,29.0,30.00,North,0,0.0,0.0,74,0.00,,CLR,0.00,VWS V14.01,2013-03-15 09:25:00,
2013-03-15 04:30:00,36.5,29.3,30.00,North,0,0.0,0.0,75,0.00,,CLR,0.00,VWS V14.01,2013-03-15 09:30:00,
2013-03-15 04:35:00,36.3,29.1,29.99,North,0,0.0,0.0,75,0.00,,CLR,0.00,VWS V14.01,2013-03-15 09:35:00,
2013-03-15 04:40:00,36.1,29.0,29.99,North,0,0.0,0.0,75,0.00,,CLR,0.00,VWS V14.01,2013-03-15 09:40:00,
2013-03-15 04:45:00,36.1,29.0,29.99,North,0,0.0,0.0,75,0.00,,CLR,0.00,VWS V14.01,2013-03-15 09:45:00,
2013-03-15 04:50:00,35.9,28.8,29.99,North,0,0.0,0.0,75,0.00,,CLR,0.00,VWS V14.01,2013-03-15 09:50:00,
2013-03-15 04:55:00,35.8,29.0,29.99,North,0,0.0,0.0,76,0.00,,CLR,0.00,VWS V14.01,2013-03-15 09:55:00,
2013-03-15 05:05:00,35.8,29.0,29.98,North,0,0.0,0.0,76,0.00,,CLR,0.00,VWS V14.01,2013-03-15 10:05:00,
2013-03-15 05:10:00,35.8,29.3,29.98,North,0,0.0,0.0,77,0.00,,CLR,0.00,VWS V14.01,2013-03-15 10:10:00,
2013-03-15 05:15:00,35.8,29.0,29.99,North,0,0.0,0.0,76,0.00,,CLR,0.00,VWS V14.01,2013-03-15 10:15:00,
2013-03-15 05:20:00,35.8,29.0,29.98,North,0,0.0,0.0,76,0.00,,CLR,0.00,VWS V14.01,2013-03-15 10:20:00,
2013-03-15 05:25:00,35.8,29.0,29.98,North,0,0.0,0.0,76,0.00,,CLR,0.00,VWS V14.01,2013-03-15 10:25:00,
2013-03-15 05:30:00,35.8,29.0,29.98,North,0,0.0,0.0,76,0.00,,CLR,0.00,VWS V14.01,2013-03-15 10:30:00,
2013-03-15 05:35:00,35.8,29.3,29.98,North,0,0.0,0.0,77,0.00,,CLR,0.00,VWS V14.01,2013-03-15 10:35:00,
2013-03-15 05:40:00,35.9,29.4,29.98,NNE,22,0.0,0.0,77,0.00,,CLR,0.00,VWS V14.01,2013-03-15 10:40:00,
2013-03-15 05:45:00,35.9,29.4,29.98,NNW,338,0.0,1.1,77,0.00,,CLR,0.00,VWS V14.01,2013-03-15 10:45:00,
2013-03-15 05:50:00,36.1,29.9,29.98,NNW,338,0.0,0.4,78,0.00,,CLR,0.00,VWS V14.01,2013-03-15 10:50:00,
2013-03-15 05:55:00,36.1,29.9,29.98,NNW,338,0.0,0.0,78,0.00,,CLR,0.00,VWS V14.01,2013-03-15 10:55:00,
2013-03-15 06:05:00,35.8,29.3,29.98,NNW,338,0.0,0.0,77,0.00,,CLR,0.00,VWS V14.01,2013-03-15 11:05:00,
2013-03-15 06:10:00,35.8,29.3,29.97,NNW,338,0.0,0.0,77,0.00,,CLR,0.00,VWS V14.01,2013-03-15 11:10:00,
2013-03-15 06:15:00,35.6,29.1,29.97,NNW,338,0.0,0.0,77,0.00,,CLR,0.00,VWS V14.01,2013-03-15 11:15:00,
2013-03-15 06:20:00,35.4,28.9,29.97,NNW,338,0.0,0.0,77,0.00,,CLR,0.00,VWS V14.01,2013-03-15 11:20:00,
2013-03-15 06:25:00,35.4,28.9,29.97,NNW,338,0.0,0.0,77,0.00,,CLR,0.00,VWS V14.01,2013-03-15 11:25:00,
2013-03-15 06:30:00,35.4,28.9,29.98,NNW,338,0.0,0.0,77,0.00,,CLR,0.00,VWS V14.01,2013-03-15 11:30:00,
2013-03-15 06:35:00,35.2,29.0,29.98,NNW,338,0.0,0.0,78,0.00,,CLR,0.00,VWS V14.01,2013-03-15 11:35:00,
2013-03-15 06:40:00,35.2,29.0,29.98,NNW,338,0.0,0.0,78,0.00,,CLR,0.00,VWS V14.01,2013-03-15 11:40:00,
2013-03-15 06:45:00,35.2,29.0,29.98,NNW,338,0.0,0.0,78,0.00,,CLR,0.00,VWS V14.01,2013-03-15 11:45:00,
2013-03-15 06:50:00,35.0,28.9,29.98,NNW,338,0.0,0.0,78,0.00,,CLR,0.00,VWS V14.01,2013-03-15 11:50:00,
2013-03-15 06:55:00,35.0,28.9,29.97,NNW,338,0.0,0.0,78,0.00,,CLR,0.00,VWS V14.01,2013-03-15 11:55:00,
2013-03-15 07:05:00,35.0,28.9,29.97,NNW,338,0.0,0.0,78,0.00,,CLR,0.00,VWS V14.01,2013-03-15 12:05:00,
2013-03-15 07:10:00,35.0,29.2,29.97,NNW,338,0.0,0.0,79,0.00,,CLR,0.00,VWS V14.01,2013-03-15 12:10:00,
2013-03-15 07:15:00,34.9,29.1,29.97,NNW,338,0.0,0.0,79,0.00,,CLR,0.00,VWS V14.01,2013-03-15 12:15:00,
2013-03-15 07:20:00,34.9,29.1,29.96,NNW,338,0.0,0.0,79,0.00,,CLR,0.00,VWS V14.01,2013-03-15 12:20:00,
2013-03-15 07:25:00,34.9,29.1,29.96,NNW,338,0.0,0.0,79,0.00,,CLR,0.00,VWS V14.01,2013-03-15 12:25:00,
2013-03-15 07:30:00,34.7,28.9,29.95,NNW,338,0.0,0.0,79,0.00,,CLR,0.00,VWS V14.01,2013-03-15 12:30:00,
2013-03-15 07:35:00,34.7,28.9,29.95,NNW,338,0.0,0.0,79,0.00,,CLR,0.00,VWS V14.01,2013-03-15 12:35:00,
2013-03-15 07:40:00,34.7,28.9,29.95,NNW,338,0.0,0.0,79,0.00,,CLR,0.00,VWS V14.01,2013-03-15 12:40:00,
2013-03-15 07:45:00,34.5,29.0,29.94,NNW,338,0.0,0.0,80,0.00,,CLR,0.00,VWS V14.01,2013-03-15 12:45:00,
2013-03-15 07:50:00,34.7,29.2,29.94,NNW,338,0.0,0.0,80,0.00,,CLR,0.00,VWS V14.01,2013-03-15 12:50:00,
2013-03-15 07:55:00,34.7,29.2,29.94,NNW,338,0.0,0.0,80,0.00,,CLR,0.00,VWS V14.01,2013-03-15 12:55:00,
2013-03-15 08:05:00,34.7,29.2,29.94,NNW,338,0.0,0.0,80,0.00,,CLR,0.00,VWS V14.01,2013-03-15 13:05:00,
2013-03-15 08:10:00,34.9,29.4,29.94,NNW,338,0.0,0.0,80,0.00,,CLR,0.00,VWS V14.01,2013-03-15 13:10:00,
2013-03-15 08:15:00,35.0,29.5,29.93,NNW,338,0.0,0.0,80,0.00,,CLR,0.00,VWS V14.01,2013-03-15 13:15:00,
2013-03-15 08:20:00,35.4,30.2,29.93,NNW,338,0.0,0.0,81,0.00,,CLR,0.00,VWS V14.01,2013-03-15 13:20:00,
2013-03-15 08:25:00,35.6,30.4,29.93,NNW,338,0.0,0.0,81,0.00,,CLR,0.00,VWS V14.01,2013-03-15 13:25:00,
2013-03-15 08:30:00,35.9,31.0,29.93,NNW,338,0.0,0.0,82,0.00,,CLR,0.00,VWS V14.01,2013-03-15 13:30:00,
2013-03-15 08:35:00,36.5,31.5,29.93,NNW,338,0.0,0.0,82,0.00,,CLR,0.00,VWS V14.01,2013-03-15 13:35:00,
2013-03-15 08:40:00,36.8,31.8,29.93,NNW,338,0.0,0.0,82,0.00,,CLR,0.00,VWS V14.01,2013-03-15 13:40:00,
2013-03-15 08:45:00,37.6,32.6,29.92,NNW,338,0.0,0.0,82,0.00,,CLR,0.00,VWS V14.01,2013-03-15 13:45:00,
2013-03-15 08:50:00,38.3,33.3,29.92,SSE,158,0.0,0.0,82,0.00,,CLR,0.00,VWS V14.01,2013-03-15 13:50:00,
2013-03-15 08:55:00,39.4,34.7,29.92,SSE,158,0.0,0.0,83,0.00,,CLR,0.00,VWS V14.01,2013-03-15 13:55:00,
2013-03-15 09:05:00,42.2,37.4,29.92,SSE,158,0.4,0.7,83,0.00,,CLR,0.00,VWS V14.01,2013-03-15 14:05:00,
2013-03-15 09:10:00,44.6,39.1,29.92,SE,135,1.1,1.1,81,0.00,,CLR,0.00,VWS V14.01,2013-03-15 14:10:00,
2013-03-15 09:15:00,46.6,40.8,29.92,SSW,202,0.9,1.1,80,0.00,,CLR,0.00,VWS V14.01,2013-03-15 14:15:00,
2013-03-15 09:20:00,48.4,41.9,29.91,SSE,158,1.1,1.3,78,0.00,,CLR,0.00,VWS V14.01,2013-03-15 14:20:00,
2013-03-15 09:25:00,50.0,42.4,29.91,SSE,158,1.6,2.2,75,0.00,,CLR,0.00,VWS V14.01,2013-03-15 14:25:00,
2013-03-15 09:30:00,51.2,43.6,29.91,SE,135,1.1,1.6,75,0.00,,CLR,0.00,VWS V14.01,2013-03-15 14:30:00,
2013-03-15 09:35:00,52.3,43.9,29.91,SW,225,0.9,2.2,73,0.00,,CLR,0.00,VWS V14.01,2013-03-15 14:35:00,
2013-03-15 09:40:00,53.4,44.6,29.91,SSE,158,0.9,2.9,72,0.00,,CLR,0.00,VWS V14.01,2013-03-15 14:40:00,
2013-03-15 09:45:00,54.5,44.9,29.90,SW,225,1.1,4.0,70,0.00,,CLR,0.00,VWS V14.01,2013-03-15 14:45:00,
2013-03-15 09:50:00,55.4,45.4,29.90,SE,135,4.0,4.0,69,0.00,,CLR,0.00,VWS V14.01,2013-03-15 14:50:00,
2013-03-15 09:55:00,56.5,45.7,29.90,West,270,1.3,4.0,67,0.00,,CLR,0.00,VWS V14.01,2013-03-15 14:55:00,
2013-03-15 10:05:00,57.7,46.0,29.90,South,180,0.4,3.4,65,0.00,,CLR,0.00,VWS V14.01,2013-03-15 15:05:00,
2013-03-15 10:10:00,58.4,46.7,29.90,SSE,158,1.8,3.6,65,0.00,,CLR,0.00,VWS V14.01,2013-03-15 15:10:00,
2013-03-15 10:15:00,59.2,47.0,29.90,East,90,2.0,3.4,64,0.00,,CLR,0.00,VWS V14.01,2013-03-15 15:15:00,
2013-03-15 10:20:00,59.7,47.1,29.90,South,180,2.5,3.1,63,0.00,,CLR,0.00,VWS V14.01,2013-03-15 15:20:00,
2013-03-15 10:25:00,59.9,46.4,29.90,SSW,202,1.1,2.9,61,0.00,,CLR,0.00,VWS V14.01,2013-03-15 15:25:00,
2013-03-15 10:30:00,60.2,46.7,29.89,WSW,248,4.5,4.5,61,0.00,,CLR,0.00,VWS V14.01,2013-03-15 15:30:00,
2013-03-15 10:35:00,61.0,47.0,29.89,West,270,4.9,4.9,60,0.00,,CLR,0.00,VWS V14.01,2013-03-15 15:35:00,
2013-03-15 10:40:00,61.7,47.2,29.89,East,90,2.0,4.9,59,0.00,,CLR,0.00,VWS V14.01,2013-03-15 15:40:00,
2013-03-15 10:45:00,62.2,47.3,29.88,SW,225,3.8,4.7,58,0.00,,CLR,0.00,VWS V14.01,2013-03-15 15:45:00,
2013-03-15 10:50:00,62.8,47.4,29.88,WSW,248,1.6,3.8,57,0.00,,CLR,0.00,VWS V14.01,2013-03-15 15:50:00,
2013-03-15 10:55:00,63.1,47.2,29.88,SSE,158,2.7,3.1,56,0.00,,CLR,0.00,VWS V14.01,2013-03-15 15:55:00,
2013-03-15 11:05:00,63.7,47.2,29.87,SSW,202,2.7,4.5,55,0.00,,CLR,0.00,VWS V14.01,2013-03-15 16:05:00,
2013-03-15 11:10:00,64.0,47.0,29.87,South,180,1.8,4.0,54,0.00,,CLR,0.00,VWS V14.01,2013-03-15 16:10:00,
2013-03-15 11:15:00,64.4,46.9,29.87,SE,135,2.5,2.5,53,0.00,,CLR,0.00,VWS V14.01,2013-03-15 16:15:00,
2013-03-15 11:20:00,64.9,47.4,29.87,SE,135,1.8,2.5,53,0.00,,CLR,0.00,VWS V14.01,2013-03-15 16:20:00,
2013-03-15 11:25:00,65.5,47.9,29.87,SSW,202,3.4,3.8,53,0.00,,CLR,0.00,VWS V14.01,2013-03-15 16:25:00,
2013-03-15 11:30:00,65.6,47.0,29.87,SE,135,2.0,4.5,51,0.00,,CLR,0.00,VWS V14.01,2013-03-15 16:30:00,
2013-03-15 11:35:00,65.8,47.2,29.86,West,270,4.7,4.7,51,0.00,,CLR,0.00,VWS V14.01,2013-03-15 16:35:00,
2013-03-15 11:40:00,66.2,47.6,29.86,SW,225,3.1,4.7,51,0.00,,CLR,0.00,VWS V14.01,2013-03-15 16:40:00,
2013-03-15 11:45:00,66.9,48.2,29.86,NW,315,1.1,3.1,51,0.00,,CLR,0.00,VWS V14.01,2013-03-15 16:45:00,
2013-03-15 11:50:00,67.6,48.8,29.86,ESE,112,1.1,4.0,51,0.00,,CLR,0.00,VWS V14.01,2013-03-15 16:50:00,
2013-03-15 11:55:00,68.2,48.9,29.85,SSE,158,0.4,3.4,50,0.00,,CLR,0.00,VWS V14.01,2013-03-15 16:55:00,
2013-03-15 12:05:00,69.6,49.6,29.85,WSW,248,4.9,4.9,49,0.00,,CLR,0.00,VWS V14.01,2013-03-15 17:05:00,
2013-03-15 12:10:00,70.1,49.5,29.84,SSW,202,2.2,4.9,48,0.00,,CLR,0.00,VWS V14.01,2013-03-15 17:10:00,
2013-03-15 12:15:00,70.7,49.5,29.84,SSE,158,2.2,8.5,47,0.00,,CLR,0.00,VWS V14.01,2013-03-15 17:15:00,
2013-03-15 12:20:00,71.2,50.0,29.84,SSE,158,1.1,2.5,47,0.00,,CLR,0.00,VWS V14.01,2013-03-15 17:20:00,
2013-03-15 12:25:00,71.9,50.0,29.84,SE,135,5.4,6.3,46,0.00,,CLR,0.00,VWS V14.01,2013-03-15 17:25:00,
2013-03-15 12:30:00,72.5,50.0,29.84,WNW,292,4.3,5.4,45,0.00,,CLR,0.00,VWS V14.01,2013-03-15 17:30:00,
2013-03-15 12:35:00,72.8,49.6,29.83,WNW,292,3.4,4.7,44,0.00,,CLR,0.00,VWS V14.01,2013-03-15 17:35:00,
2013-03-15 12:40:00,73.4,50.2,29.84,WSW,248,2.2,6.3,44,0.00,,CLR,0.00,VWS V14.01,2013-03-15 17:40:00,
2013-03-15 12:45:00,73.6,49.8,29.84,SSW,202,2.7,6.9,43,0.00,,CLR,0.00,VWS V14.01,2013-03-15 17:45:00,
2013-03-15 12:50:00,73.9,49.4,29.83,SE,135,1.8,4.7,42,0.00,,CLR,0.00,VWS V14.01,2013-03-15 17:50:00,
2013-03-15 12:55:00,74.3,49.1,29.83,NNW,338,6.9,6.9,41,0.00,,CLR,0.00,VWS V14.01,2013-03-15 17:55:00,
2013-03-15 13:05:00,74.3,49.1,29.82,SE,135,2.0,5.1,41,0.00,,CLR,0.00,VWS V14.01,2013-03-15 18:05:00,
2013-03-15 13:10:00,74.6,49.4,29.82,ENE,68,2.7,4.0,41,0.00,,CLR,0.00,VWS V14.01,2013-03-15 18:10:00,
2013-03-15 13:15:00,74.8,49.5,29.82,SE,135,2.5,5.6,41,0.00,,CLR,0.00,VWS V14.01,2013-03-15 18:15:00,
2013-03-15 13:20:00,75.0,49.7,29.81,SW,225,4.7,4.7,41,0.00,,CLR,0.00,VWS V14.01,2013-03-15 18:20:00,
2013-03-15 13:25:00,75.2,49.2,29.81,NW,315,8.1,8.1,40,0.00,,CLR,0.00,VWS V14.01,2013-03-15 18:25:00,
2013-03-15 13:30:00,75.2,49.2,29.81,WSW,248,1.8,8.1,40,0.00,,CLR,0.00,VWS V14.01,2013-03-15 18:30:00,
2013-03-15 13:35:00,75.4,49.4,29.81,SSW,202,1.8,4.5,40,0.00,,CLR,0.00,VWS V14.01,2013-03-15 18:35:00,
2013-03-15 13:40:00,75.5,49.5,29.81,ESE,112,1.1,4.0,40,0.00,,CLR,0.00,VWS V14.01,2013-03-15 18:40:00,
2013-03-15 13:45:00,75.5,49.5,29.81,SW,225,4.0,5.4,40,0.00,,CLR,0.00,VWS V14.01,2013-03-15 18:45:00,
2013-03-15 13:50:00,75.5,49.5,29.80,SSE,158,3.4,4.0,40,0.00,,CLR,0.00,VWS V14.01,2013-03-15 18:50:00,
2013-03-15 13:55:00,75.7,49.7,29.80,SW,225,8.9,8.9,40,0.00,,CLR,0.00,VWS V14.01,2013-03-15 18:55:00,
2013-03-15 14:05:00,75.7,49.7,29.80,West,270,2.7,4.3,40,0.00,,CLR,0.00,VWS V14.01,2013-03-15 19:05:00,
2013-03-15 14:10:00,75.7,49.0,29.79,NW,315,4.7,5.4,39,0.00,,CLR,0.00,VWS V14.01,2013-03-15 19:10:00,
2013-03-15 14:15:00,75.7,49.0,29.79,WSW,248,2.9,4.7,39,0.00,,CLR,0.00,VWS V14.01,2013-03-15 19:15:00,
2013-03-15 14:20:00,76.1,49.4,29.78,WNW,292,1.8,3.8,39,0.00,,CLR,0.00,VWS V14.01,2013-03-15 19:20:00,
2013-03-15 14:25:00,76.4,49.6,29.78,SW,225,1.3,3.4,39,0.00,,CLR,0.00,VWS V14.01,2013-03-15 19:25:00,
2013-03-15 14:30:00,76.8,49.3,29.78,SSE,158,3.4,4.0,38,0.00,,CLR,0.00,VWS V14.01,2013-03-15 19:30:00,
2013-03-15 14:35:00,77.0,49.5,29.77,SE,135,2.9,4.0,38,0.00,,CLR,0.00,VWS V14.01,2013-03-15 19:35:00,
2013-03-15 14:40:00,77.3,49.0,29.77,SW,225,3.4,7.2,37,0.00,,CLR,0.00,VWS V14.01,2013-03-15 19:40:00,
2013-03-15 14:45:00,77.3,49.0,29.77,South,180,2.7,4.5,37,0.00,,CLR,0.00,VWS V14.01,2013-03-15 19:45:00,
2013-03-15 14:50:00,77.5,49.2,29.76,SW,225,3.8,9.2,37,0.00,,CLR,0.00,VWS V14.01,2013-03-15 19:50:00,
2013-03-15 14:55:00,77.5,49.2,29.76,SSE,158,4.7,5.1,37,0.00,,CLR,0.00,VWS V14.01,2013-03-15 19:55:00,
2013-03-15 15:05:00,78.2,49.1,29.76,SW,225,2.0,5.4,36,0.00,,CLR,0.00,VWS V14.01,2013-03-15 20:05:00,
2013-03-15 15:10:00,78.6,48.7,29.75,WSW,248,1.8,4.7,35,0.00,,CLR,0.00,VWS V14.01,2013-03-15 20:10:00,
2013-03-15 15:15:00,78.6,48.7,29.75,SSW,202,4.3,8.1,35,0.00,,CLR,0.00,VWS V14.01,2013-03-15 20:15:00,
2013-03-15 15:20:00,78.4,48.5,29.75,SSE,158,3.6,4.3,35,0.00,,CLR,0.00,VWS V14.01,2013-03-15 20:20:00,
2013-03-15 15:29:00,78.1,48.2,29.74,WSW,248,3.1,3.4,35,0.00,,CLR,0.00,VWS V14.01,2013-03-15 20:29:00,
2013-03-15 15:35:00,78.1,47.5,29.74,WSW,248,5.1,8.7,34,0.00,,CLR,0.00,VWS V14.01,2013-03-15 20:35:00,
2013-03-15 15:40:00,78.2,47.6,29.74,WSW,248,4.9,7.6,34,0.00,,CLR,0.00,VWS V14.01,2013-03-15 20:40:00,
2013-03-15 15:45:00,78.4,47.7,29.74,WSW,248,4.7,8.3,34,0.00,,CLR,0.00,VWS V14.01,2013-03-15 20:45:00,
2013-03-15 15:50:00,78.4,47.7,29.74,NW,315,2.9,6.9,34,0.00,,CLR,0.00,VWS V14.01,2013-03-15 20:50:00,
2013-03-15 15:55:00,78.6,47.9,29.74,South,180,1.8,4.5,34,0.00,,CLR,0.00,VWS V14.01,2013-03-15 20:55:00,
2013-03-15 16:05:00,78.6,47.1,29.73,WSW,248,5.4,5.4,33,0.00,,CLR,0.00,VWS V14.01,2013-03-15 21:05:00,
2013-03-15 16:10:00,78.6,47.1,29.73,SW,225,4.0,5.4,33,0.00,,CLR,0.00,VWS V14.01,2013-03-15 21:10:00,
2013-03-15 16:15:00,78.6,47.1,29.73,SSE,158,1.8,4.5,33,0.00,,CLR,0.00,VWS V14.01,2013-03-15 21:15:00,
2013-03-15 16:20:00,78.4,47.0,29.73,SW,225,1.6,2.2,33,0.00,,CLR,0.00,VWS V14.01,2013-03-15 21:20:00,
2013-03-15 16:25:00,78.4,47.0,29.73,West,270,4.0,4.0,33,0.00,,CLR,0.00,VWS V14.01,2013-03-15 21:25:00,
2013-03-15 16:30:00,78.2,46.8,29.72,South,180,1.8,4.0,33,0.00,,CLR,0.00,VWS V14.01,2013-03-15 21:30:00,
2013-03-15 16:35:00,78.2,46.8,29.72,SW,225,4.0,4.0,33,0.00,,CLR,0.00,VWS V14.01,2013-03-15 21:35:00,
2013-03-15 16:40:00,78.2,46.8,29.72,SE,135,1.6,4.0,33,0.00,,CLR,0.00,VWS V14.01,2013-03-15 21:40:00,
2013-03-15 16:49:00,78.4,47.7,29.72,SSW,202,2.7,2.7,34,0.00,,CLR,0.00,VWS V14.01,2013-03-15 21:49:00,
2013-03-15 16:55:00,78.6,47.1,29.71,SW,225,3.1,3.1,33,0.00,,CLR,0.00,VWS V14.01,2013-03-15 21:55:00,
2013-03-15 17:05:00,78.6,47.1,29.71,South,180,1.1,4.0,33,0.00,,CLR,0.00,VWS V14.01,2013-03-15 22:05:00,
2013-03-15 17:10:00,78.8,47.3,29.71,SW,225,3.4,3.4,33,0.00,,CLR,0.00,VWS V14.01,2013-03-15 22:10:00,
2013-03-15 17:15:00,78.6,47.1,29.71,SSE,158,1.1,5.6,33,0.00,,CLR,0.00,VWS V14.01,2013-03-15 22:15:00,
2013-03-15 17:20:00,78.4,47.0,29.71,South,180,4.3,4.3,33,0.00,,CLR,0.00,VWS V14.01,2013-03-15 22:20:00,
2013-03-15 17:25:00,78.2,46.8,29.71,West,270,3.1,6.9,33,0.00,,CLR,0.00,VWS V14.01,2013-03-15 22:25:00,
2013-03-15 17:30:00,78.1,46.7,29.71,SW,225,3.6,4.5,33,0.00,,CLR,0.00,VWS V14.01,2013-03-15 22:30:00,
2013-03-15 17:35:00,77.9,46.5,29.70,ESE,112,2.2,5.4,33,0.00,,CLR,0.00,VWS V14.01,2013-03-15 22:35:00,
2013-03-15 17:40:00,77.7,46.3,29.71,WSW,248,1.1,4.7,33,0.00,,CLR,0.00,VWS V14.01,2013-03-15 22:40:00,
2013-03-15 17:45:00,77.3,46.0,29.70,SSE,158,2.7,6.3,33,0.00,,CLR,0.00,VWS V14.01,2013-03-15 22:45:00,
2013-03-15 17:50:00,77.2,46.7,29.70,WSW,248,4.3,4.9,34,0.00,,CLR,0.00,VWS V14.01,2013-03-15 22:50:00,
2013-03-15 17:55:00,76.8,47.1,29.70,SE,135,2.5,4.5,35,0.00,,CLR,0.00,VWS V14.01,2013-03-15 22:55:00,
2013-03-15 18:05:00,76.1,48.0,29.70,SE,135,5.8,5.8,37,0.00,,CLR,0.00,VWS V14.01,2013-03-15 23:05:00,
2013-03-15 18:10:00,75.4,47.3,29.70,SSW,202,1.3,5.8,37,0.00,,CLR,0.00,VWS V14.01,2013-03-15 23:10:00,
2013-03-15 18:15:00,74.8,47.5,29.70,ESE,112,3.6,4.5,38,0.00,,CLR,0.00,VWS V14.01,2013-03-15 23:15:00,
2013-03-15 18:20:00,74.3,47.1,29.70,SSW,202,5.4,5.4,38,0.00,,CLR,0.00,VWS V14.01,2013-03-15 23:20:00,
2013-03-15 18:29:00,73.4,47.0,29.70,SE,135,3.1,5.4,39,0.00,,CLR,0.00,VWS V14.01,2013-03-15 23:29:00,
2013-03-15 18:35:00,72.8,46.4,29.70,SSW,202,2.0,3.8,39,0.00,,CLR,0.00,VWS V14.01,2013-03-15 23:35:00,
2013-03-15 18:40:00,72.8,47.1,29.69,WSW,248,6.0,7.6,40,0.00,,CLR,0.00,VWS V14.01,2013-03-15 23:40:00,
2013-03-15 18:45:00,72.5,46.8,29.69,SW,225,0.7,6.0,40,0.00,,CLR,0.00,VWS V14.01,2013-03-15 23:45:00,
2013-03-15 18:50:00,72.1,46.5,29.69,SSE,158,2.0,3.8,40,0.00,,CLR,0.00,VWS V14.01,2013-03-15 23:50:00,
2013-03-15 18:55:00,71.9,46.3,29.69,WSW,248,2.9,5.1,40,0.00,,CLR,0.00,VWS V14.01,2013-03-15 23:55:00,
2013-03-15 19:05:00,71.2,46.3,29.69,South,180,0.4,4.0,41,0.00,,CLR,0.00,VWS V14.01,2013-03-16 00:05:00,
2013-03-15 19:10:00,71.0,46.1,29.69,SSE,158,3.6,3.6,41,0.00,,CLR,0.00,VWS V14.01,2013-03-16 00:10:00,
2013-03-15 19:15:00,70.7,46.5,29.69,SE,135,1.3,3.6,42,0.00,,CLR,0.00,VWS V14.01,2013-03-16 00:15:00,
2013-03-15 19:20:00,70.3,46.2,29.69,SW,225,2.0,2.0,42,0.00,,CLR,0.00,VWS V14.01,2013-03-16 00:20:00,
2013-03-15 19:29:00,69.8,46.3,29.69,SE,135,6.7,6.7,43,0.00,,CLR,0.00,VWS V14.01,2013-03-16 00:29:00,
2013-03-15 19:35:00,69.6,46.1,29.69,SSE,158,2.7,4.5,43,0.00,,CLR,0.00,VWS V14.01,2013-03-16 00:35:00,
2013-03-15 19:40:00,69.6,46.1,29.69,SW,225,7.6,7.6,43,0.00,,CLR,0.00,VWS V14.01,2013-03-16 00:40:00,
2013-03-15 19:45:00,69.2,45.8,29.69,SE,135,1.3,7.6,43,0.00,,CLR,0.00,VWS V14.01,2013-03-16 00:45:00,
2013-03-15 19:50:00,69.1,45.7,29.69,SW,225,3.1,3.4,43,0.00,,CLR,0.00,VWS V14.01,2013-03-16 00:50:00,
2013-03-15 19:55:00,68.9,45.5,29.69,ESE,112,1.1,3.1,43,0.00,,CLR,0.00,VWS V14.01,2013-03-16 00:55:00,
2013-03-15 20:05:00,68.5,45.1,29.69,SE,135,0.9,4.0,43,0.00,,CLR,0.00,VWS V14.01,2013-03-16 01:05:00,
2013-03-15 20:10:00,68.2,45.5,29.69,SE,135,2.5,3.4,44,0.00,,CLR,0.00,VWS V14.01,2013-03-16 01:10:00,
2013-03-15 20:19:00,67.8,45.1,29.69,ESE,112,1.1,2.0,44,0.00,,CLR,0.00,VWS V14.01,2013-03-16 01:19:00,
2013-03-15 20:25:00,67.4,44.8,29.69,SSE,158,0.9,1.8,44,0.00,,CLR,0.00,VWS V14.01,2013-03-16 01:25:00,
2013-03-15 20:30:00,67.1,45.1,29.69,West,270,1.3,2.7,45,0.00,,CLR,0.00,VWS V14.01,2013-03-16 01:30:00,
2013-03-15 20:35:00,66.9,44.9,29.69,SSW,202,1.1,4.7,45,0.00,,CLR,0.00,VWS V14.01,2013-03-16 01:35:00,
2013-03-15 20:40:00,66.7,44.7,29.69,SSE,158,1.1,6.9,45,0.00,,CLR,0.00,VWS V14.01,2013-03-16 01:40:00,
2013-03-15 20:45:00,66.5,44.5,29.69,SSW,202,1.3,2.7,45,0.00,,CLR,0.00,VWS V14.01,2013-03-16 01:45:00,
2013-03-15 20:50:00,66.4,44.4,29.69,SW,225,1.6,3.8,45,0.00,,CLR,0.00,VWS V14.01,2013-03-16 01:50:00,
2013-03-15 20:55:00,66.4,43.8,29.69,South,180,1.8,4.7,44,0.00,,CLR,0.00,VWS V14.01,2013-03-16 01:55:00,
2013-03-15 21:05:00,66.2,43.7,29.69,ESE,112,1.8,2.9,44,0.00,,CLR,0.00,VWS V14.01,2013-03-16 02:05:00,
2013-03-15 21:10:00,66.0,44.1,29.69,SE,135,2.5,2.5,45,0.00,,CLR,0.00,VWS V14.01,2013-03-16 02:10:00,
2013-03-15 21:15:00,65.6,43.7,29.69,WSW,248,2.5,2.5,45,0.00,,CLR,0.00,VWS V14.01,2013-03-16 02:15:00,
2013-03-15 21:20:00,65.5,43.6,29.69,SW,225,4.3,4.3,45,0.00,,CLR,0.00,VWS V14.01,2013-03-16 02:20:00,
2013-03-15 21:25:00,65.3,43.4,29.69,SW,225,3.4,4.7,45,0.00,,CLR,0.00,VWS V14.01,2013-03-16 02:25:00,
2013-03-15 21:30:00,65.1,43.3,29.69,SW,225,1.8,3.4,45,0.00,,CLR,0.00,VWS V14.01,2013-03-16 02:30:00,
2013-03-15 21:35:00,64.9,43.7,29.69,SE,135,1.3,4.0,46,0.00,,CLR,0.00,VWS V14.01,2013-03-16 02:35:00,
2013-03-15 21:40:00,64.7,43.5,29.69,SW,225,1.1,2.0,46,0.00,,CLR,0.00,VWS V14.01,2013-03-16 02:40:00,
2013-03-15 21:45:00,64.6,43.4,29.69,SW,225,1.3,2.5,46,0.00,,CLR,0.00,VWS V14.01,2013-03-16 02:45:00,
2013-03-15 21:50:00,64.4,43.2,29.69,SSW,202,1.3,1.6,46,0.00,,CLR,0.00,VWS V14.01,2013-03-16 02:50:00,
2013-03-15 21:55:00,64.2,43.0,29.69,SW,225,0.4,1.6,46,0.00,,CLR,0.00,VWS V14.01,2013-03-16 02:55:00,
2013-03-15 22:05:00,63.8,43.2,29.69,SSW,202,2.5,2.5,47,0.00,,CLR,0.00,VWS V14.01,2013-03-16 03:05:00,
2013-03-15 22:10:00,63.7,43.1,29.69,SW,225,0.7,2.5,47,0.00,,CLR,0.00,VWS V14.01,2013-03-16 03:10:00,
2013-03-15 22:15:00,63.5,42.9,29.69,SSW,202,3.4,3.4,47,0.00,,CLR,0.00,VWS V14.01,2013-03-16 03:15:00,
2013-03-15 22:20:00,63.3,42.8,29.69,SW,225,1.1,3.4,47,0.00,,CLR,0.00,VWS V14.01,2013-03-16 03:20:00,
2013-03-15 22:25:00,63.1,43.1,29.69,WNW,292,0.7,1.8,48,0.00,,CLR,0.00,VWS V14.01,2013-03-16 03:25:00,
2013-03-15 22:30:00,63.1,43.1,29.70,North,0,0.9,3.4,48,0.00,,CLR,0.00,VWS V14.01,2013-03-16 03:30:00,
2013-03-15 22:35:00,62.9,42.9,29.71,SSW,202,2.0,2.5,48,0.00,,CLR,0.00,VWS V14.01,2013-03-16 03:35:00,
2013-03-15 22:40:00,62.9,42.9,29.71,WNW,292,0.7,2.9,48,0.00,,CLR,0.00,VWS V14.01,2013-03-16 03:40:00,
2013-03-15 22:45:00,62.8,42.8,29.72,NW,315,1.1,2.2,48,0.00,,CLR,0.00,VWS V14.01,2013-03-16 03:45:00,
2013-03-15 22:50:00,62.8,42.8,29.71,West,270,1.3,1.8,48,0.00,,CLR,0.00,VWS V14.01,2013-03-16 03:50:00,
2013-03-15 22:55:00,62.4,42.5,29.72,North,0,0.2,1.3,48,0.00,,CLR,0.00,VWS V14.01,2013-03-16 03:55:00,
2013-03-15 23:00:00,62.0,42.6,29.73,NNW,338,0.7,1.1,49,0.00,,CLR,0.00,VWS V14.01,2013-03-16 04:00:00,
2013-03-15 23:05:00,61.9,42.5,29.72,NNW,338,1.1,1.6,49,0.00,,CLR,0.00,VWS V14.01,2013-03-16 04:05:00,
2013-03-15 23:10:00,61.5,42.2,29.72,NW,315,0.7,1.6,49,0.00,,CLR,0.00,VWS V14.01,2013-03-16 04:10:00,
2013-03-15 23:15:00,61.1,42.3,29.72,West,270,1.3,1.8,50,0.00,,CLR,0.00,VWS V14.01,2013-03-16 04:15:00,
2013-03-15 23:20:00,60.8,42.1,29.72,NNW,338,0.0,1.3,50,0.00,,CLR,0.00,VWS V14.01,2013-03-16 04:20:00,
2013-03-15 23:25:00,60.2,42.0,29.72,WSW,248,1.1,1.1,51,0.00,,CLR,0.00,VWS V14.01,2013-03-16 04:25:00,
2013-03-15 23:30:00,59.9,41.8,29.72,WSW,248,0.4,1.1,51,0.00,,CLR,0.00,VWS V14.01,2013-03-16 04:30:00,
2013-03-15 23:35:00,59.5,41.4,29.71,WSW,248,0.7,1.1,51,0.00,,CLR,0.00,VWS V14.01,2013-03-16 04:35:00,
2013-03-15 23:40:00,59.2,41.6,29.71,WNW,292,1.1,1.1,52,0.00,,CLR,0.00,VWS V14.01,2013-03-16 04:40:00,
2013-03-15 23:45:00,58.8,41.2,29.71,WNW,292,0.9,1.1,52,0.00,,CLR,0.00,VWS V14.01,2013-03-16 04:45:00,
2013-03-15 23:50:00,58.4,41.3,29.71,NW,315,0.4,1.8,53,0.00,,CLR,0.00,VWS V14.01,2013-03-16 04:50:00,
2013-03-15 23:55:00,58.1,41.6,29.71,West,270,1.6,2.0,54,0.00,,CLR,0.00,VWS V14.01,2013-03-16 04:55:00,